createdAt,value
2022-09-03T00:00:24.923Z,1.25
2022-09-03T00:01:51.890Z,1.20
2022-09-03T00:03:19.395Z,1.02
2022-09-03T00:04:47.538Z,0.85
2022-09-03T00:06:13.609Z,1.17
2022-09-03T00:07:40.255Z,1.20
2022-09-03T00:09:07.406Z,0.93
2022-09-03T00:10:32.838Z,1.00
2022-09-03T00:12:02.942Z,1.23
2022-09-03T00:13:31.656Z,1.20
2022-09-03T00:14:58.148Z,1.45
2022-09-03T00:16:24.018Z,1.20
2022-09-03T00:17:49.600Z,0.77
2022-09-03T00:19:14.464Z,1.25
2022-09-03T00:20:42.886Z,1.00
2022-09-03T00:22:10.961Z,1.10
2022-09-03T00:23:37.131Z,1.08
2022-09-03T00:25:01.084Z,1.15
2022-09-03T00:26:29.896Z,1.00
2022-09-03T00:27:57.929Z,1.08
2022-09-03T00:29:23.465Z,1.25
2022-09-03T00:30:48.404Z,1.05
2022-09-03T00:32:17.067Z,1.00
2022-09-03T00:33:41.951Z,1.20
2022-09-03T00:35:07.941Z,1.00
2022-09-03T00:36:36.178Z,1.15
2022-09-03T00:38:00.269Z,1.10
2022-09-03T00:39:24.664Z,1.00
2022-09-03T00:41:03.018Z,1.08
2022-09-03T00:42:38.516Z,1.02
2022-09-03T00:44:43.477Z,1.02
2022-09-03T00:46:12.576Z,1.30
2022-09-03T00:47:43.921Z,1.45
2022-09-03T00:49:23.100Z,1.30
2022-09-03T00:51:00.665Z,1.05
2022-09-03T00:52:33.610Z,1.35
2022-09-03T00:54:04.126Z,1.10
2022-09-03T00:55:40.443Z,1.35
2022-09-03T00:57:25.650Z,1.00
2022-09-03T00:59:01.162Z,1.20
2022-09-03T01:00:26.237Z,1.20
2022-09-03T01:01:55.485Z,1.50
2022-09-03T01:03:28.082Z,1.08
2022-09-03T01:04:58.179Z,1.10
2022-09-03T01:06:24.386Z,1.00
2022-09-03T01:07:54.028Z,1.30
2022-09-03T01:09:32.635Z,0.98
2022-09-03T01:10:58.231Z,1.05
2022-09-03T01:12:32.694Z,1.40
2022-09-03T01:14:02.504Z,1.00
2022-09-03T01:15:35.700Z,0.73
2022-09-03T01:17:05.589Z,0.73
2022-09-03T01:18:35.551Z,1.10
2022-09-03T01:20:12.951Z,0.90
2022-09-03T01:21:53.204Z,0.90
2022-09-03T01:23:58.163Z,1.00
2022-09-03T01:25:31.195Z,0.75
2022-09-03T01:27:06.473Z,1.10
2022-09-03T01:28:42.421Z,1.10
2022-09-03T01:30:10.408Z,0.95
2022-09-03T01:31:42.311Z,1.40
2022-09-03T01:33:11.052Z,0.90
2022-09-03T01:34:46.555Z,0.93
2022-09-03T01:36:15.864Z,1.20
2022-09-03T01:37:47.077Z,1.20
2022-09-03T01:39:14.009Z,0.88
2022-09-03T01:40:43.542Z,0.60
2022-09-03T01:42:20.947Z,0.88
2022-09-03T01:43:51.719Z,1.00
2022-09-03T01:45:29.109Z,1.17
2022-09-03T01:46:56.316Z,0.90
2022-09-03T01:48:47.376Z,1.00
2022-09-03T01:50:13.489Z,0.95
2022-09-03T01:51:36.968Z,1.02
2022-09-03T01:53:04.855Z,0.90
2022-09-03T01:54:52.658Z,1.20
2022-09-03T01:56:27.083Z,0.68
2022-09-03T01:57:56.147Z,0.98
2022-09-03T01:59:25.739Z,1.10
2022-09-03T02:00:53.339Z,1.20
2022-09-03T02:02:21.304Z,0.80
2022-09-03T02:03:45.815Z,0.80
2022-09-03T02:05:10.189Z,1.15
2022-09-03T02:06:33.845Z,1.40
2022-09-03T02:08:00.973Z,1.13
2022-09-03T02:09:24.604Z,1.05
2022-09-03T02:10:54.865Z,1.25
2022-09-03T02:12:18.656Z,0.88
2022-09-03T02:13:43.705Z,1.02
2022-09-03T02:15:10.875Z,1.10
2022-09-03T02:16:35.282Z,1.10
2022-09-03T02:18:01.977Z,0.80
2022-09-03T02:19:25.605Z,1.00
2022-09-03T02:20:49.523Z,1.00
2022-09-03T02:22:13.588Z,1.02
2022-09-03T02:23:37.195Z,0.80
2022-09-03T02:24:59.857Z,1.13
2022-09-03T02:26:25.030Z,1.30
2022-09-03T02:27:49.406Z,1.10
2022-09-03T02:29:13.029Z,1.20
2022-09-03T02:30:37.227Z,0.93
2022-09-03T02:32:01.514Z,1.20
2022-09-03T02:33:23.992Z,0.82
2022-09-03T02:34:47.733Z,1.30
2022-09-03T02:36:13.622Z,1.30
2022-09-03T02:37:37.229Z,0.82
2022-09-03T02:39:00.066Z,1.10
2022-09-03T02:40:23.530Z,0.98
2022-09-03T02:41:51.062Z,0.93
2022-09-03T02:43:18.632Z,1.05
2022-09-03T02:44:42.932Z,1.05
2022-09-03T02:46:11.612Z,1.20
2022-09-03T02:47:36.360Z,0.90
2022-09-03T02:48:58.854Z,0.80
2022-09-03T02:50:22.461Z,0.70
2022-09-03T02:51:46.434Z,1.10
2022-09-03T02:53:08.926Z,1.02
2022-09-03T02:54:33.304Z,1.00
2022-09-03T02:56:00.617Z,0.95
2022-09-03T02:57:27.771Z,0.98
2022-09-03T02:58:50.382Z,1.15
2022-09-03T03:00:14.998Z,0.90
2022-09-03T03:01:38.878Z,1.10
2022-09-03T03:03:06.783Z,1.60
2022-09-03T03:04:29.773Z,0.90
2022-09-03T03:05:55.521Z,1.00
2022-09-03T03:07:17.948Z,1.20
2022-09-03T03:08:41.707Z,1.10
2022-09-03T03:10:05.701Z,0.98
2022-09-03T03:11:28.221Z,0.85
2022-09-03T03:12:51.628Z,1.13
2022-09-03T03:14:14.135Z,0.85
2022-09-03T03:15:37.519Z,1.35
2022-09-03T03:17:01.341Z,1.40
2022-09-03T03:18:25.342Z,1.50
2022-09-03T03:19:49.201Z,1.17
2022-09-03T03:21:15.255Z,0.90
2022-09-03T03:22:38.737Z,0.68
2022-09-03T03:24:03.916Z,1.00
2022-09-03T03:25:30.933Z,1.25
2022-09-03T03:26:58.061Z,1.20
2022-09-03T03:28:20.608Z,1.40
2022-09-03T03:29:44.177Z,1.02
2022-09-03T03:31:07.757Z,1.35
2022-09-03T03:32:32.645Z,0.93
2022-09-03T03:33:56.510Z,1.02
2022-09-03T03:35:19.968Z,0.75
2022-09-03T03:36:43.546Z,0.75
2022-09-03T03:38:06.093Z,1.30
2022-09-03T03:39:29.569Z,1.05
2022-09-03T03:40:52.029Z,1.27
2022-09-03T03:42:15.414Z,1.50
2022-09-03T03:43:37.955Z,1.08
2022-09-03T03:45:02.511Z,1.08
2022-09-03T03:46:27.026Z,1.40
2022-09-03T03:47:52.359Z,1.27
2022-09-03T03:49:14.786Z,1.27
2022-09-03T03:50:39.092Z,1.30
2022-09-03T03:52:03.155Z,1.60
2022-09-03T03:53:26.595Z,1.20
2022-09-03T03:54:50.136Z,1.23
2022-09-03T03:56:15.143Z,1.17
2022-09-03T03:57:38.569Z,1.50
2022-09-03T03:59:03.819Z,1.00
2022-09-03T04:00:27.327Z,1.00
2022-09-03T04:01:51.247Z,1.10
2022-09-03T04:03:15.062Z,1.13
2022-09-03T04:04:39.297Z,1.27
2022-09-03T04:06:02.670Z,0.98
2022-09-03T04:07:26.161Z,1.17
2022-09-03T04:08:49.592Z,1.13
2022-09-03T04:10:13.206Z,1.10
2022-09-03T04:11:36.670Z,1.60
2022-09-03T04:13:00.975Z,0.82
2022-09-03T04:14:24.419Z,1.38
2022-09-03T04:15:47.324Z,1.10
2022-09-03T04:17:10.728Z,1.08
2022-09-03T04:18:35.389Z,1.15
2022-09-03T04:19:58.809Z,1.20
2022-09-03T04:21:24.266Z,1.40
2022-09-03T04:22:51.736Z,1.15
2022-09-03T04:24:15.459Z,1.40
2022-09-03T04:25:38.127Z,1.30
2022-09-03T04:27:01.693Z,1.17
2022-09-03T04:28:25.300Z,1.08
2022-09-03T04:29:48.788Z,1.30
2022-09-03T04:31:12.598Z,1.60
2022-09-03T04:32:54.479Z,1.55
2022-09-03T04:34:18.235Z,1.40
2022-09-03T04:35:42.099Z,1.13
2022-09-03T04:37:05.624Z,1.42
2022-09-03T04:38:32.470Z,1.30
2022-09-03T04:39:55.936Z,1.25
2022-09-03T04:41:20.984Z,1.38
2022-09-03T04:42:44.569Z,1.02
2022-09-03T04:44:08.626Z,1.17
2022-09-03T04:45:33.238Z,1.50
2022-09-03T04:46:56.749Z,1.02
2022-09-03T04:48:19.189Z,1.10
2022-09-03T04:49:44.070Z,1.42
2022-09-03T04:51:08.293Z,2.00
2022-09-03T04:52:31.861Z,1.27
2022-09-03T04:53:56.865Z,1.83
2022-09-03T04:55:20.499Z,1.35
2022-09-03T04:56:43.976Z,1.50
2022-09-03T04:58:08.780Z,1.00
2022-09-03T04:59:32.302Z,1.42
2022-09-03T05:00:56.515Z,1.50
2022-09-03T05:02:21.194Z,1.40
2022-09-03T05:03:44.982Z,1.40
2022-09-03T05:05:10.343Z,1.67
2022-09-03T05:06:35.437Z,1.60
2022-09-03T05:08:01.893Z,1.38
2022-09-03T05:09:25.414Z,1.60
2022-09-03T05:10:47.990Z,1.23
2022-09-03T05:12:13.067Z,1.38
2022-09-03T05:13:37.682Z,1.30
2022-09-03T05:15:01.243Z,1.20
2022-09-03T05:16:24.533Z,1.50
2022-09-03T05:17:48.141Z,0.73
2022-09-03T05:19:12.578Z,1.48
2022-09-03T05:20:36.409Z,1.35
2022-09-03T05:21:59.793Z,1.30
2022-09-03T05:23:22.435Z,1.02
2022-09-03T05:24:45.850Z,1.45
2022-09-03T05:26:10.863Z,1.50
2022-09-03T05:27:34.660Z,1.17
2022-09-03T05:28:59.079Z,1.35
2022-09-03T05:30:23.543Z,1.40
2022-09-03T05:31:47.014Z,1.50
2022-09-03T05:33:09.507Z,1.40
2022-09-03T05:34:32.947Z,1.38
2022-09-03T05:36:03.023Z,1.50
2022-09-03T05:37:27.253Z,1.48
2022-09-03T05:38:50.166Z,1.45
2022-09-03T05:40:14.091Z,1.50
2022-09-03T05:41:37.613Z,1.38
2022-09-03T05:43:04.303Z,1.42
2022-09-03T05:44:31.604Z,1.60
2022-09-03T05:46:00.515Z,1.40
2022-09-03T05:47:23.938Z,1.48
2022-09-03T05:48:47.631Z,1.65
2022-09-03T05:50:11.391Z,1.15
2022-09-03T05:51:39.356Z,1.17
2022-09-03T05:53:01.831Z,1.35
2022-09-03T05:54:25.346Z,1.48
2022-09-03T05:55:57.248Z,1.30
2022-09-03T05:57:20.736Z,1.60
2022-09-03T05:58:45.957Z,1.30
2022-09-03T06:00:11.626Z,1.20
2022-09-03T06:01:36.337Z,1.17
2022-09-03T06:03:00.171Z,1.13
2022-09-03T06:04:23.702Z,1.25
2022-09-03T06:05:52.393Z,1.33
2022-09-03T06:07:17.293Z,1.17
2022-09-03T06:08:41.491Z,1.20
2022-09-03T06:10:05.341Z,1.60
2022-09-03T06:11:29.615Z,1.67
2022-09-03T06:12:52.587Z,1.50
2022-09-03T06:14:16.498Z,1.15
2022-09-03T06:15:40.243Z,1.20
2022-09-03T06:17:03.649Z,1.50
2022-09-03T06:18:26.636Z,1.40
2022-09-03T06:19:50.062Z,1.65
2022-09-03T06:21:12.578Z,1.17
2022-09-03T06:22:39.097Z,1.58
2022-09-03T06:24:01.740Z,1.55
2022-09-03T06:25:25.365Z,1.50
2022-09-03T06:26:48.967Z,1.38
2022-09-03T06:28:12.456Z,1.65
2022-09-03T06:29:36.960Z,1.38
2022-09-03T06:31:00.065Z,1.35
2022-09-03T06:32:23.540Z,1.40
2022-09-03T06:33:47.133Z,1.60
2022-09-03T06:35:10.909Z,1.20
2022-09-03T06:36:34.586Z,1.30
2022-09-03T06:38:00.418Z,1.70
2022-09-03T06:39:24.788Z,1.25
2022-09-03T06:40:53.378Z,1.50
2022-09-03T06:42:17.499Z,1.50
2022-09-03T06:43:41.198Z,1.30
2022-09-03T06:45:04.909Z,1.58
2022-09-03T06:46:38.722Z,1.23
2022-09-03T06:48:02.308Z,1.30
2022-09-03T06:49:26.211Z,1.88
2022-09-03T06:50:55.015Z,1.30
2022-09-03T06:52:18.468Z,1.70
2022-09-03T06:53:43.604Z,1.30
2022-09-03T06:55:07.964Z,1.73
2022-09-03T06:56:37.353Z,1.52
2022-09-03T06:58:03.189Z,1.17
2022-09-03T06:59:26.900Z,1.33
2022-09-03T07:00:49.811Z,1.45
2022-09-03T07:02:13.365Z,1.25
2022-09-03T07:03:36.661Z,1.50
2022-09-03T07:05:00.432Z,1.25
2022-09-03T07:06:24.769Z,1.45
2022-09-03T07:07:48.218Z,1.77
2022-09-03T07:09:15.416Z,1.77
2022-09-03T07:10:38.391Z,1.08
2022-09-03T07:12:01.836Z,1.13
2022-09-03T07:13:25.414Z,1.33
2022-09-03T07:14:49.333Z,1.50
2022-09-03T07:16:16.632Z,1.20
2022-09-03T07:17:40.393Z,1.60
2022-09-03T07:19:04.694Z,1.30
2022-09-03T07:20:27.134Z,1.67
2022-09-03T07:21:51.047Z,1.40
2022-09-03T07:23:16.348Z,1.55
2022-09-03T07:24:42.994Z,1.55
2022-09-03T07:26:07.692Z,1.45
2022-09-03T07:27:31.327Z,1.35
2022-09-03T07:28:55.748Z,1.20
2022-09-03T07:30:19.612Z,1.30
2022-09-03T07:31:45.389Z,1.10
2022-09-03T07:33:09.101Z,1.20
2022-09-03T07:34:35.607Z,1.52
2022-09-03T07:36:05.889Z,1.50
2022-09-03T07:37:29.514Z,1.38
2022-09-03T07:38:55.650Z,1.42
2022-09-03T07:40:20.591Z,1.45
2022-09-03T07:41:45.770Z,1.63
2022-09-03T07:43:09.226Z,1.50
2022-09-03T07:44:32.730Z,1.25
2022-09-03T07:45:57.134Z,1.38
2022-09-03T07:47:21.596Z,1.40
2022-09-03T07:48:50.969Z,1.48
2022-09-03T07:50:16.239Z,1.25
2022-09-03T07:51:40.550Z,1.30
2022-09-03T07:53:04.025Z,1.13
2022-09-03T07:54:27.662Z,1.58
2022-09-03T07:55:51.848Z,1.60
2022-09-03T07:57:15.277Z,1.13
2022-09-03T07:58:40.011Z,1.05
2022-09-03T08:00:03.864Z,1.17
2022-09-03T08:01:28.773Z,1.30
2022-09-03T08:02:54.090Z,1.08
2022-09-03T08:04:20.618Z,1.48
2022-09-03T08:05:43.131Z,1.33
2022-09-03T08:07:06.767Z,1.23
2022-09-03T08:08:31.270Z,1.23
2022-09-03T08:09:59.321Z,1.25
2022-09-03T08:11:23.180Z,0.82
2022-09-03T08:12:46.646Z,1.50
2022-09-03T08:14:10.800Z,1.20
2022-09-03T08:15:34.878Z,1.42
2022-09-03T08:16:59.988Z,1.23
2022-09-03T08:18:23.232Z,1.40
2022-09-03T08:19:47.348Z,1.33
2022-09-03T08:21:14.879Z,1.38
2022-09-03T08:22:38.514Z,1.27
2022-09-03T08:24:03.409Z,1.15
2022-09-03T08:25:26.852Z,1.23
2022-09-03T08:26:52.471Z,1.75
2022-09-03T08:28:15.163Z,1.65
2022-09-03T08:29:38.626Z,1.48
2022-09-03T08:31:07.627Z,1.10
2022-09-03T08:32:31.321Z,1.40
2022-09-03T08:33:54.922Z,1.30
2022-09-03T08:35:18.680Z,1.20
2022-09-03T08:36:41.481Z,1.20
2022-09-03T08:38:07.076Z,1.23
2022-09-03T08:39:34.586Z,1.10
2022-09-03T08:41:07.018Z,1.20
2022-09-03T08:42:40.981Z,1.13
2022-09-03T08:44:15.154Z,1.23
2022-09-03T08:45:39.368Z,1.35
2022-09-03T08:47:05.829Z,1.40
2022-09-03T08:48:30.003Z,1.20
2022-09-03T08:49:57.066Z,1.40
2022-09-03T08:51:22.480Z,1.35
2022-09-03T08:52:49.890Z,1.15
2022-09-03T08:54:14.981Z,1.38
2022-09-03T08:55:42.723Z,1.25
2022-09-03T08:57:07.021Z,1.73
2022-09-03T08:58:34.235Z,1.40
2022-09-03T08:59:57.729Z,1.20
2022-09-03T09:01:31.609Z,2.00
2022-09-03T09:03:04.693Z,1.27
2022-09-03T09:04:40.092Z,1.00
2022-09-03T09:06:11.670Z,1.52
2022-09-03T09:07:41.502Z,1.35
2022-09-03T09:09:11.078Z,2.15
2022-09-03T09:10:38.629Z,1.65
2022-09-03T09:12:10.708Z,1.30
2022-09-03T09:13:45.822Z,1.25
2022-09-03T09:15:12.231Z,1.02
2022-09-03T09:16:41.836Z,1.20
2022-09-03T09:18:11.353Z,1.40
2022-09-03T09:19:43.380Z,1.30
2022-09-03T09:21:17.767Z,1.10
2022-09-03T09:22:47.227Z,1.30
2022-09-03T09:24:19.372Z,1.00
2022-09-03T09:25:48.523Z,1.63
2022-09-03T09:27:18.068Z,1.10
2022-09-03T09:28:44.684Z,1.20
2022-09-03T09:30:20.859Z,1.40
2022-09-03T09:31:45.257Z,1.27
2022-09-03T09:33:08.962Z,1.00
2022-09-03T09:34:36.960Z,1.02
2022-09-03T09:36:02.875Z,1.33
2022-09-03T09:37:26.360Z,1.40
2022-09-03T09:38:49.814Z,1.20
2022-09-03T09:40:12.339Z,0.95
2022-09-03T09:41:35.795Z,1.42
2022-09-03T09:43:11.056Z,1.27
2022-09-03T09:44:36.300Z,1.60
2022-09-03T09:46:09.474Z,1.40
2022-09-03T09:47:39.137Z,1.10
2022-09-03T09:49:02.640Z,1.30
2022-09-03T09:50:26.647Z,1.27
2022-09-03T09:51:50.210Z,1.00
2022-09-03T09:53:17.892Z,1.15
2022-09-03T09:54:42.861Z,1.13
2022-09-03T09:56:06.687Z,1.80
2022-09-03T09:57:30.214Z,1.42
2022-09-03T09:59:04.850Z,1.00
2022-09-03T10:00:28.702Z,1.05
2022-09-03T10:01:52.222Z,1.45
2022-09-03T10:03:22.712Z,0.93
2022-09-03T10:04:46.145Z,1.10
2022-09-03T10:06:30.749Z,1.20
2022-09-03T10:07:59.445Z,1.05
2022-09-03T10:09:31.084Z,1.38
2022-09-03T10:10:55.329Z,1.15
2022-09-03T10:12:24.643Z,0.88
2022-09-03T10:13:49.993Z,1.10
2022-09-03T10:15:19.414Z,1.38
2022-09-03T10:16:48.857Z,1.20
2022-09-03T10:18:26.277Z,0.80
2022-09-03T10:20:12.031Z,0.95
2022-09-03T10:21:43.075Z,0.88
2022-09-03T10:23:17.436Z,1.00
2022-09-03T10:24:48.989Z,0.68
2022-09-03T10:26:18.367Z,0.57
2022-09-03T10:27:45.880Z,0.75
2022-09-03T10:29:09.231Z,0.80
2022-09-03T10:30:39.909Z,0.98
2022-09-03T10:32:27.415Z,0.95
2022-09-03T10:34:02.303Z,1.10
2022-09-03T10:35:30.349Z,1.10
2022-09-03T10:37:01.052Z,1.15
2022-09-03T10:38:29.971Z,0.65
2022-09-03T10:40:05.100Z,0.82
2022-09-03T10:41:37.455Z,1.00
2022-09-03T10:43:15.807Z,0.80
2022-09-03T10:44:55.047Z,1.15
2022-09-03T10:46:24.285Z,1.00
2022-09-03T10:48:20.421Z,1.67
2022-09-03T10:49:52.310Z,1.00
2022-09-03T10:51:20.420Z,1.08
2022-09-03T10:52:57.740Z,1.10
2022-09-03T10:54:34.282Z,1.05
2022-09-03T10:56:01.562Z,1.40
2022-09-03T10:57:33.532Z,1.30
2022-09-03T10:59:05.058Z,1.25
2022-09-03T11:00:31.092Z,0.93
2022-09-03T11:01:58.917Z,0.98
2022-09-03T11:03:45.630Z,1.13
2022-09-03T11:05:13.352Z,0.75
2022-09-03T11:06:42.429Z,0.82
2022-09-03T11:08:10.683Z,1.17
2022-09-03T11:09:38.724Z,1.00
2022-09-03T11:11:10.611Z,0.80
2022-09-03T11:12:38.770Z,1.23
2022-09-03T11:14:06.410Z,1.00
2022-09-03T11:15:34.653Z,1.33
2022-09-03T11:17:03.052Z,0.85
2022-09-03T11:18:29.083Z,1.00
2022-09-03T11:19:58.828Z,0.60
2022-09-03T11:21:23.842Z,1.15
2022-09-03T11:22:48.350Z,1.00
2022-09-03T11:24:15.201Z,1.00
2022-09-03T11:25:42.077Z,0.90
2022-09-03T11:27:16.051Z,1.10
2022-09-03T11:28:45.356Z,1.48
2022-09-03T11:30:10.687Z,0.88
2022-09-03T11:31:48.070Z,1.15
2022-09-03T11:33:12.730Z,0.80
2022-09-03T11:34:47.505Z,0.90
2022-09-03T11:36:12.785Z,0.70
2022-09-03T11:37:48.778Z,1.40
2022-09-03T11:39:19.878Z,1.20
2022-09-03T11:40:59.158Z,0.98
2022-09-03T11:42:30.554Z,1.10
2022-09-03T11:43:54.212Z,0.75
2022-09-03T11:45:35.697Z,0.98
2022-09-03T11:47:00.248Z,0.90
2022-09-03T11:48:35.306Z,1.23
2022-09-03T11:50:09.677Z,0.90
2022-09-03T11:51:37.769Z,1.10
2022-09-03T11:53:10.310Z,0.75
2022-09-03T11:54:34.519Z,0.65
2022-09-03T11:56:01.713Z,0.82
2022-09-03T11:57:28.683Z,1.00
2022-09-03T11:59:06.608Z,1.40
2022-09-03T12:00:31.295Z,1.05
2022-09-03T12:01:58.129Z,1.13
2022-09-03T12:03:26.621Z,1.10
2022-09-03T12:04:57.440Z,0.90
2022-09-03T12:06:48.320Z,0.80
2022-09-03T12:08:38.900Z,0.93
2022-09-03T12:10:27.498Z,0.98
2022-09-03T12:11:58.443Z,1.00
2022-09-03T12:13:40.617Z,0.93
2022-09-03T12:15:09.113Z,1.00
2022-09-03T12:16:50.109Z,1.02
2022-09-03T12:18:22.520Z,0.70
2022-09-03T12:19:52.153Z,1.10
2022-09-03T12:21:18.850Z,0.88
2022-09-03T12:22:44.108Z,1.15
2022-09-03T12:24:11.072Z,0.68
2022-09-03T12:25:34.609Z,0.95
2022-09-03T12:27:00.871Z,1.10
2022-09-03T12:28:26.119Z,1.00
2022-09-03T12:29:59.397Z,0.90
2022-09-03T12:31:25.293Z,1.10
2022-09-03T12:32:49.527Z,1.05
2022-09-03T12:34:16.076Z,1.00
2022-09-03T12:39:14.805Z,1.00
2022-09-03T12:42:29.569Z,0.60
2022-09-03T12:43:53.297Z,1.00
2022-09-03T12:45:20.796Z,0.80
2022-09-03T12:46:44.423Z,0.98
2022-09-03T12:48:15.519Z,1.05
2022-09-03T12:49:40.012Z,1.08
2022-09-03T12:52:49.346Z,0.90
2022-09-03T12:54:16.002Z,0.73
2022-09-03T12:55:43.555Z,0.80
2022-09-03T12:57:07.155Z,1.27
2022-09-03T12:58:35.656Z,1.35
2022-09-03T13:00:01.272Z,0.95
2022-09-03T13:01:28.446Z,1.10
2022-09-03T13:02:53.804Z,1.65
2022-09-03T13:04:19.322Z,1.10
2022-09-03T13:05:46.914Z,1.10
2022-09-03T13:07:13.936Z,0.82
2022-09-03T13:08:45.790Z,0.80
2022-09-03T13:10:28.392Z,1.00
2022-09-03T13:11:52.555Z,0.90
2022-09-03T13:13:24.823Z,0.93
2022-09-03T13:14:48.490Z,1.20
2022-09-03T13:16:37.141Z,1.38
2022-09-03T13:18:11.582Z,1.10
2022-09-03T13:19:45.346Z,1.05
2022-09-03T13:21:15.463Z,0.65
2022-09-03T13:22:45.233Z,1.20
2022-09-03T13:24:38.961Z,0.95
2022-09-03T13:26:10.588Z,0.77
2022-09-03T13:27:37.703Z,0.77
2022-09-03T13:29:21.173Z,1.17
2022-09-03T13:30:51.241Z,1.42
2022-09-03T13:32:23.438Z,0.80
2022-09-03T13:33:51.051Z,0.90
2022-09-03T13:35:19.146Z,1.30
2022-09-03T13:36:45.695Z,1.25
2022-09-03T13:38:19.812Z,1.50
2022-09-03T13:39:51.164Z,1.13
2022-09-03T13:41:20.642Z,1.10
2022-09-03T13:42:45.986Z,1.05
2022-09-03T13:44:19.513Z,1.13
2022-09-03T13:45:46.853Z,1.50
2022-09-03T13:47:15.257Z,1.10
2022-09-03T13:48:58.592Z,1.05
2022-09-03T13:50:23.136Z,0.82
2022-09-03T13:51:51.711Z,1.00
2022-09-03T13:53:22.717Z,1.00
2022-09-03T13:54:49.996Z,0.80
2022-09-03T13:56:25.801Z,1.02
2022-09-03T13:57:52.219Z,1.20
2022-09-03T13:59:21.626Z,0.82
2022-09-03T14:00:50.727Z,1.25
2022-09-03T14:02:25.101Z,1.25
2022-09-03T14:03:51.230Z,1.10
2022-09-03T14:05:21.030Z,1.10
2022-09-03T14:06:47.994Z,1.00
2022-09-03T14:08:17.553Z,1.15
2022-09-03T14:09:46.720Z,1.42
2022-09-03T14:11:21.285Z,1.02
2022-09-03T14:12:47.054Z,1.20
2022-09-03T14:14:17.909Z,1.20
2022-09-03T14:15:47.311Z,1.00
2022-09-03T14:17:14.901Z,0.77
2022-09-03T14:18:48.152Z,1.20
2022-09-03T14:20:14.471Z,1.20
2022-09-03T14:21:42.405Z,1.45
2022-09-03T14:23:10.864Z,1.20
2022-09-03T14:24:44.142Z,1.38
2022-09-03T14:26:08.815Z,1.30
2022-09-03T14:27:34.887Z,1.10
2022-09-03T14:29:04.981Z,1.35
2022-09-03T14:30:39.084Z,1.30
2022-09-03T14:32:17.077Z,1.15
2022-09-03T14:33:45.696Z,1.38
2022-09-03T14:35:23.637Z,1.10
2022-09-03T14:36:50.723Z,1.15
2022-09-03T14:38:50.632Z,1.50
2022-09-03T14:40:15.828Z,1.10
2022-09-03T14:42:09.008Z,1.20
2022-09-03T14:43:54.477Z,1.52
2022-09-03T14:45:26.474Z,1.20
2022-09-03T14:47:00.616Z,1.00
2022-09-03T14:48:56.859Z,1.00
2022-09-03T14:50:29.645Z,1.17
2022-09-03T14:52:09.185Z,1.35
2022-09-03T14:54:02.529Z,1.30
2022-09-03T14:55:46.289Z,1.38
2022-09-03T14:57:20.524Z,1.25
2022-09-03T14:59:00.879Z,1.23
2022-09-03T15:00:32.103Z,1.33
2022-09-03T15:02:11.410Z,1.48
2022-09-03T15:03:52.209Z,1.30
2022-09-03T15:05:21.221Z,1.17
2022-09-03T15:07:00.050Z,1.23
2022-09-03T15:08:36.355Z,0.80
2022-09-03T15:10:05.368Z,1.30
2022-09-03T15:11:31.897Z,0.80
2022-09-03T15:12:58.678Z,1.02
2022-09-03T15:14:27.166Z,1.10
2022-09-03T15:16:01.406Z,1.30
2022-09-03T15:17:39.366Z,1.13
2022-09-03T15:19:12.819Z,1.40
2022-09-03T15:20:49.943Z,0.85
2022-09-03T15:22:19.993Z,1.17
2022-09-03T15:23:54.305Z,1.83
2022-09-03T15:25:23.831Z,1.25
2022-09-03T15:26:58.421Z,1.42
2022-09-03T15:28:29.005Z,0.88
2022-09-03T15:30:02.084Z,1.17
2022-09-03T15:31:33.676Z,1.15
2022-09-03T15:33:05.770Z,1.00
2022-09-03T15:34:43.984Z,1.55
2022-09-03T15:36:17.671Z,1.63
2022-09-03T15:37:45.834Z,1.15
2022-09-03T15:39:13.570Z,1.40
2022-09-03T15:40:41.180Z,1.65
2022-09-03T15:42:10.191Z,1.00
2022-09-03T15:43:35.200Z,1.48
2022-09-03T15:45:07.007Z,1.20
2022-09-03T15:46:45.605Z,1.33
2022-09-03T15:48:27.652Z,1.60
2022-09-03T15:49:59.966Z,1.30
2022-09-03T15:51:27.976Z,1.50
2022-09-03T15:52:57.675Z,1.30
2022-09-03T15:54:27.053Z,1.67
2022-09-03T15:55:49.692Z,1.10
2022-09-03T15:57:15.010Z,1.50
2022-09-03T15:58:43.328Z,1.40
2022-09-03T16:00:12.816Z,1.42
2022-09-03T16:01:42.261Z,1.55
2022-09-03T16:03:20.380Z,1.65
2022-09-03T16:04:58.878Z,1.50
2022-09-03T16:06:29.024Z,1.77
2022-09-03T16:08:05.950Z,1.50
2022-09-03T16:09:40.322Z,2.10
2022-09-03T16:11:10.100Z,1.20
2022-09-03T16:12:37.485Z,1.30
2022-09-03T16:14:07.101Z,1.65
2022-09-03T16:15:37.084Z,1.73
2022-09-03T16:17:06.892Z,0.95
2022-09-03T16:18:32.895Z,1.60
2022-09-03T16:20:00.175Z,1.60
2022-09-03T16:21:26.384Z,1.55
2022-09-03T16:22:56.282Z,1.50
2022-09-03T16:24:22.316Z,1.70
2022-09-03T16:25:49.973Z,1.70
2022-09-03T16:27:16.729Z,1.33
2022-09-03T16:28:47.035Z,1.90
2022-09-03T16:30:13.310Z,1.95
2022-09-03T16:31:53.455Z,1.75
2022-09-03T16:33:23.208Z,1.83
2022-09-03T16:34:55.718Z,1.33
2022-09-03T16:36:28.916Z,1.48
2022-09-03T16:38:05.531Z,1.23
2022-09-03T16:39:38.995Z,1.40
2022-09-03T16:41:11.208Z,1.35
2022-09-03T16:42:41.439Z,1.48
2022-09-03T16:44:13.308Z,1.48
2022-09-03T16:45:42.942Z,1.58
2022-09-03T16:47:12.489Z,1.60
2022-09-03T16:48:46.346Z,1.88
2022-09-03T16:50:24.395Z,1.90
2022-09-03T16:51:55.799Z,1.70
2022-09-03T16:53:29.519Z,1.38
2022-09-03T16:55:06.597Z,1.85
2022-09-03T16:56:43.220Z,1.30
2022-09-03T16:58:15.125Z,1.80
2022-09-03T16:59:51.412Z,1.80
2022-09-03T17:01:22.550Z,1.50
2022-09-03T17:03:07.548Z,1.17
2022-09-03T17:04:41.950Z,1.52
2022-09-03T17:06:32.685Z,1.75
2022-09-03T17:08:06.088Z,1.65
2022-09-03T17:09:46.775Z,1.63
2022-09-03T17:11:20.197Z,1.65
2022-09-03T17:12:49.491Z,1.42
2022-09-03T17:14:28.609Z,1.80
2022-09-03T17:15:55.895Z,1.73
2022-09-03T17:17:29.892Z,2.22
2022-09-03T17:19:00.811Z,1.95
2022-09-03T17:20:40.325Z,2.15
2022-09-03T17:22:12.569Z,1.90
2022-09-03T17:23:56.086Z,2.00
2022-09-03T17:25:25.883Z,1.40
2022-09-03T17:26:55.427Z,1.83
2022-09-03T17:28:26.174Z,1.92
2022-09-03T17:30:04.295Z,1.80
2022-09-03T17:31:39.350Z,1.80
2022-09-03T17:33:35.597Z,2.30
2022-09-03T17:35:10.489Z,1.88
2022-09-03T17:36:38.821Z,2.50
2022-09-03T17:38:11.070Z,2.05
2022-09-03T17:40:00.152Z,2.40
2022-09-03T17:41:34.258Z,2.42
2022-09-03T17:43:02.132Z,2.53
2022-09-03T17:44:39.151Z,2.75
2022-09-03T17:46:14.327Z,2.42
2022-09-03T17:48:03.030Z,2.10
2022-09-03T17:49:29.318Z,2.55
2022-09-03T17:50:58.847Z,2.40
2022-09-03T17:52:27.943Z,2.28
2022-09-03T17:53:55.101Z,2.28
2022-09-03T17:55:25.153Z,2.42
2022-09-03T17:56:52.707Z,2.30
2022-09-03T17:58:20.541Z,2.30
2022-09-03T17:59:46.771Z,2.50
2022-09-03T18:01:21.482Z,2.47
2022-09-03T18:02:51.697Z,2.45
2022-09-03T18:04:19.294Z,2.30
2022-09-03T18:05:49.710Z,2.22
2022-09-03T18:07:23.537Z,2.13
2022-09-03T18:08:50.923Z,2.58
2022-09-03T18:10:29.216Z,2.22
2022-09-03T18:11:58.060Z,2.22
2022-09-03T18:13:26.538Z,2.72
2022-09-03T18:14:53.256Z,2.80
2022-09-03T18:16:21.071Z,2.63
2022-09-03T18:17:49.608Z,2.58
2022-09-03T18:19:20.108Z,2.20
2022-09-03T18:21:22.266Z,2.72
2022-09-03T18:23:11.008Z,2.58
2022-09-03T18:24:54.564Z,2.50
2022-09-03T18:26:39.563Z,2.45
2022-09-03T18:28:23.995Z,2.55
2022-09-03T18:30:14.176Z,2.55
2022-09-03T18:31:55.295Z,2.88
2022-09-03T18:33:40.166Z,2.80
2022-09-03T18:35:21.069Z,2.85
2022-09-03T18:37:02.487Z,3.40
2022-09-03T18:38:46.678Z,2.67
2022-09-03T18:40:29.794Z,2.22
2022-09-03T18:42:18.560Z,2.22
2022-09-03T18:44:06.310Z,2.38
2022-09-03T18:46:45.942Z,1.90
2022-09-03T18:48:07.476Z,2.40
2022-09-03T18:49:58.063Z,2.00
2022-09-03T18:51:45.765Z,1.95
2022-09-03T18:53:31.048Z,2.22
2022-09-03T18:55:24.401Z,2.35
2022-09-03T18:57:07.387Z,2.30
2022-09-03T18:58:55.963Z,1.92
2022-09-03T19:00:37.099Z,2.08
2022-09-03T19:02:20.334Z,2.40
2022-09-03T19:04:10.900Z,2.38
2022-09-03T19:05:57.504Z,2.08
2022-09-03T19:07:42.350Z,2.83
2022-09-03T19:09:26.700Z,2.22
2022-09-03T19:11:13.206Z,1.77
2022-09-03T19:13:02.951Z,2.35
2022-09-03T19:14:48.326Z,1.95
2022-09-03T19:16:31.155Z,1.83
2022-09-03T19:18:28.433Z,2.00
2022-09-03T19:20:20.142Z,2.05
2022-09-03T19:22:04.693Z,1.95
2022-09-03T19:23:45.835Z,1.95
2022-09-03T19:25:30.816Z,1.98
2022-09-03T19:27:50.124Z,2.13
2022-09-03T19:29:27.818Z,2.38
2022-09-03T19:31:19.969Z,2.78
2022-09-03T19:33:09.887Z,2.30
2022-09-03T19:35:07.948Z,2.22
2022-09-03T19:36:53.671Z,2.28
2022-09-03T19:38:41.090Z,1.73
2022-09-03T19:40:36.177Z,1.70
2022-09-03T19:42:23.160Z,1.70
2022-09-03T19:44:14.270Z,2.03
2022-09-03T19:46:04.593Z,1.92
2022-09-03T19:47:51.450Z,1.70
2022-09-03T19:49:39.007Z,2.05
2022-09-03T19:51:25.921Z,2.15
2022-09-03T19:53:10.433Z,2.00
2022-09-03T19:54:51.427Z,2.05
2022-09-03T19:56:37.957Z,2.50
2022-09-03T19:58:39.526Z,1.80
2022-09-03T20:00:32.585Z,1.92
2022-09-03T20:02:14.157Z,1.85
2022-09-03T20:03:55.502Z,2.20
2022-09-03T20:05:39.749Z,1.88
2022-09-03T20:07:23.481Z,2.08